Terminal Aerodrome Forecast
Issued by NWS

Home | Current Version | Previous Version | Text Only | Print | Product List | Glossary Off
Versions: 1 2 3 4 5 6 7 8 9 10 11 12 13 14 15 16 17 18 19 20 21 22

000
FTUS43 KICT 280500
TAFHUT
TAF
KHUT 280520Z 2806/2906 14008KT P6SM OVC120
     FM280900 15009KT P6SM VCTS OVC100CB
     FM281500 18016G23KT P6SM VCTS OVC100CB
     FM290100 17006KT P6SM VCTS SCT040 BKN100CB=

USA.gov is the U.S. government's official web portal to all federal, state and local government web resources and services.